createdAt,value
2018-08-31T00:01:45.075Z,25.70
2018-08-31T00:04:36.182Z,25.80
2018-08-31T00:07:15.459Z,25.70
2018-08-31T00:12:09.584Z,25.60
2018-08-31T00:14:38.106Z,25.60
2018-08-31T00:17:06.635Z,25.50
2018-08-31T00:19:35.056Z,25.50
2018-08-31T00:22:03.344Z,25.50
2018-08-31T00:24:42.628Z,25.50
2018-08-31T00:27:21.943Z,25.40
2018-08-31T00:30:01.431Z,25.30
2018-08-31T00:33:09.214Z,25.30
2018-08-31T00:35:47.603Z,25.30
2018-08-31T00:38:59.075Z,25.20
2018-08-31T00:41:38.476Z,25.20
2018-08-31T00:46:24.420Z,25.20
2018-08-31T00:48:52.787Z,25.10
2018-08-31T00:51:21.091Z,25.10
2018-08-31T00:53:49.509Z,25.00
2018-08-31T00:56:17.779Z,25.00
2018-08-31T00:58:46.212Z,25.00
2018-08-31T01:01:14.546Z,24.90
2018-08-31T01:03:42.876Z,24.90
2018-08-31T01:06:11.147Z,24.90
2018-08-31T01:08:39.627Z,24.80
2018-08-31T01:11:08.143Z,24.80
2018-08-31T01:13:37.342Z,24.80
2018-08-31T01:16:06.084Z,24.80
2018-08-31T01:18:34.503Z,24.70
2018-08-31T01:21:03.020Z,24.60
2018-08-31T01:23:31.612Z,24.60
2018-08-31T01:25:59.995Z,24.60
2018-08-31T01:28:28.436Z,24.60
2018-08-31T01:30:56.898Z,24.60
2018-08-31T01:33:25.372Z,24.60
2018-08-31T01:35:53.786Z,24.50
2018-08-31T01:38:22.147Z,24.50
2018-08-31T01:40:50.646Z,24.50
2018-08-31T01:43:18.887Z,24.50
2018-08-31T01:45:47.284Z,24.50
2018-08-31T01:48:15.678Z,24.40
2018-08-31T01:50:49.588Z,24.40
2018-08-31T01:53:17.911Z,24.40
2018-08-31T01:55:46.423Z,24.30
2018-08-31T01:58:14.756Z,24.30
2018-08-31T02:00:43.036Z,24.30
2018-08-31T02:03:11.458Z,24.30
2018-08-31T02:05:39.914Z,24.30
2018-08-31T02:08:08.299Z,24.20
2018-08-31T02:10:36.595Z,24.20
2018-08-31T02:13:05.006Z,24.20
2018-08-31T02:15:33.456Z,24.20
2018-08-31T02:18:01.919Z,24.20
2018-08-31T02:20:30.341Z,24.20
2018-08-31T02:22:58.868Z,24.20
2018-08-31T02:25:27.315Z,24.20
2018-08-31T02:27:55.731Z,24.20
2018-08-31T02:30:24.105Z,24.10
2018-08-31T02:32:52.577Z,24.10
2018-08-31T02:35:20.960Z,24.10
2018-08-31T02:37:49.312Z,24.10
2018-08-31T02:40:17.668Z,24.10
2018-08-31T02:42:45.966Z,24.10
2018-08-31T02:45:14.423Z,24.10
2018-08-31T02:47:42.834Z,24.10
2018-08-31T02:50:11.144Z,24.10
2018-08-31T02:52:39.595Z,24.10
2018-08-31T02:55:07.951Z,24.00
2018-08-31T02:57:36.310Z,24.00
2018-08-31T03:00:04.900Z,24.00
2018-08-31T03:02:33.309Z,24.10
2018-08-31T03:05:01.700Z,24.10
2018-08-31T03:07:30.100Z,24.10
2018-08-31T03:09:58.830Z,24.00
2018-08-31T03:12:27.305Z,24.10
2018-08-31T03:14:55.755Z,24.10
2018-08-31T03:17:24.038Z,24.10
2018-08-31T03:19:52.539Z,24.10
2018-08-31T03:22:20.836Z,24.10
2018-08-31T03:24:49.152Z,24.10
2018-08-31T03:27:17.592Z,24.20
2018-08-31T03:29:45.936Z,24.10
2018-08-31T03:32:14.318Z,24.10
2018-08-31T03:34:42.746Z,24.20
2018-08-31T03:37:11.139Z,24.10
2018-08-31T03:39:39.530Z,24.10
2018-08-31T03:42:07.892Z,24.00
2018-08-31T03:44:36.316Z,24.00
2018-08-31T03:47:04.776Z,23.90
2018-08-31T03:49:33.232Z,23.90
2018-08-31T03:52:01.585Z,23.90
2018-08-31T03:54:29.999Z,23.90
2018-08-31T03:56:58.548Z,23.90
2018-08-31T03:59:26.951Z,23.90
2018-08-31T04:01:55.353Z,23.80
2018-08-31T04:04:23.659Z,23.80
2018-08-31T04:06:51.949Z,23.90
2018-08-31T04:09:20.344Z,23.80
2018-08-31T04:11:48.731Z,23.70
2018-08-31T04:14:17.051Z,23.70
2018-08-31T04:16:45.400Z,23.60
2018-08-31T04:19:16.236Z,23.60
2018-08-31T04:21:45.332Z,23.60
2018-08-31T04:24:15.100Z,23.60
2018-08-31T04:26:43.870Z,23.70
2018-08-31T04:29:12.528Z,23.60
2018-08-31T04:31:41.049Z,23.60
2018-08-31T04:34:10.713Z,23.60
2018-08-31T04:36:39.635Z,23.60
2018-08-31T04:39:10.188Z,23.60
2018-08-31T04:41:38.571Z,23.60
2018-08-31T04:44:07.075Z,23.60
2018-08-31T04:46:35.628Z,23.50
2018-08-31T04:49:03.863Z,23.50
2018-08-31T04:51:32.174Z,23.50
2018-08-31T04:54:00.570Z,23.50
2018-08-31T04:56:28.927Z,23.50
2018-08-31T04:58:57.293Z,23.60
2018-08-31T05:01:26.209Z,23.60
2018-08-31T05:03:54.751Z,23.60
2018-08-31T05:06:23.102Z,23.60
2018-08-31T05:08:51.433Z,23.50
2018-08-31T05:11:20.758Z,23.50
2018-08-31T05:13:49.183Z,23.50
2018-08-31T05:16:17.551Z,23.50
2018-08-31T05:18:45.986Z,23.60
2018-08-31T05:21:14.427Z,23.50
2018-08-31T05:23:43.406Z,23.50
2018-08-31T05:26:12.052Z,23.40
2018-08-31T05:28:40.484Z,23.50
2018-08-31T05:31:08.932Z,23.50
2018-08-31T05:33:37.412Z,23.50
2018-08-31T05:36:05.802Z,23.50
2018-08-31T05:38:37.934Z,23.50
2018-08-31T05:41:06.321Z,23.60
2018-08-31T05:43:34.673Z,23.60
2018-08-31T05:46:02.991Z,23.60
2018-08-31T05:48:31.355Z,23.50
2018-08-31T05:50:59.787Z,23.60
2018-08-31T05:53:28.212Z,23.60
2018-08-31T05:55:56.787Z,23.60
2018-08-31T05:58:25.075Z,23.60
2018-08-31T06:00:53.657Z,23.60
2018-08-31T06:03:22.031Z,23.60
2018-08-31T06:05:50.458Z,23.60
2018-08-31T06:08:18.849Z,23.60
2018-08-31T06:10:47.318Z,23.70
2018-08-31T06:13:15.874Z,23.70
2018-08-31T06:15:44.373Z,23.70
2018-08-31T06:18:12.751Z,23.70
2018-08-31T06:20:41.215Z,23.70
2018-08-31T06:23:09.526Z,23.70
2018-08-31T06:25:37.971Z,23.70
2018-08-31T06:28:06.315Z,23.70
2018-08-31T06:30:34.768Z,23.70
2018-08-31T06:33:03.511Z,23.70
2018-08-31T06:35:31.943Z,23.70
2018-08-31T06:38:00.364Z,23.80
2018-08-31T06:40:28.771Z,23.70
2018-08-31T06:42:57.219Z,23.70
2018-08-31T06:45:25.697Z,23.70
2018-08-31T06:47:54.060Z,23.60
2018-08-31T06:50:22.435Z,23.70
2018-08-31T06:52:50.918Z,23.70
2018-08-31T06:55:19.351Z,23.70
2018-08-31T06:57:47.764Z,23.60
2018-08-31T07:00:16.062Z,23.70
2018-08-31T07:02:44.412Z,23.80
2018-08-31T07:05:13.774Z,23.80
2018-08-31T07:07:42.263Z,23.80
2018-08-31T07:10:11.037Z,23.80
2018-08-31T07:12:39.480Z,23.80
2018-08-31T07:15:08.187Z,23.80
2018-08-31T07:17:36.720Z,23.90
2018-08-31T07:20:05.818Z,23.90
2018-08-31T07:22:34.276Z,24.00
2018-08-31T07:25:02.844Z,24.00
2018-08-31T07:27:31.276Z,23.90
2018-08-31T07:29:59.697Z,24.00
2018-08-31T07:32:28.193Z,24.00
2018-08-31T07:34:56.765Z,24.00
2018-08-31T07:37:25.163Z,24.10
2018-08-31T07:39:53.487Z,24.10
2018-08-31T07:42:21.902Z,24.10
2018-08-31T07:44:50.360Z,24.20
2018-08-31T07:47:18.810Z,24.20
2018-08-31T07:49:47.308Z,24.20
2018-08-31T07:52:15.763Z,24.20
2018-08-31T07:54:44.148Z,24.20
2018-08-31T07:57:12.592Z,24.20
2018-08-31T07:59:41.019Z,24.20
2018-08-31T08:02:09.452Z,24.30
2018-08-31T08:04:37.747Z,24.30
2018-08-31T08:07:06.246Z,24.30
2018-08-31T08:09:34.612Z,24.40
2018-08-31T08:12:03.042Z,24.50
2018-08-31T08:14:53.878Z,24.50
2018-08-31T08:17:22.187Z,24.50
2018-08-31T08:19:50.633Z,24.50
2018-08-31T08:22:19.214Z,24.50
2018-08-31T08:24:47.632Z,24.60
2018-08-31T08:27:16.057Z,24.50
2018-08-31T08:29:44.511Z,24.50
2018-08-31T08:32:12.766Z,24.60
2018-08-31T08:34:41.259Z,24.60
2018-08-31T08:37:09.704Z,24.70
2018-08-31T08:39:38.182Z,24.70
2018-08-31T08:42:06.798Z,24.70
2018-08-31T08:44:35.433Z,24.70
2018-08-31T08:47:03.875Z,24.70
2018-08-31T08:49:32.266Z,24.80
2018-08-31T08:52:00.734Z,24.90
2018-08-31T08:54:29.095Z,24.90
2018-08-31T08:56:57.482Z,25.00
2018-08-31T08:59:25.794Z,25.00
2018-08-31T09:01:54.482Z,25.10
2018-08-31T09:04:23.148Z,25.20
2018-08-31T09:06:51.609Z,25.20
2018-08-31T09:09:20.075Z,25.30
2018-08-31T09:11:48.472Z,25.30
2018-08-31T09:17:47.335Z,25.30
2018-08-31T09:20:15.743Z,25.30
2018-08-31T09:22:44.154Z,25.30
2018-08-31T09:25:12.544Z,25.30
2018-08-31T09:27:40.901Z,25.40
2018-08-31T09:30:15.158Z,25.50
2018-08-31T09:32:43.608Z,25.50
2018-08-31T09:35:12.145Z,25.60
2018-08-31T09:37:40.553Z,25.60
2018-08-31T09:40:09.038Z,25.60
2018-08-31T09:42:37.435Z,25.60
2018-08-31T09:45:06.144Z,25.60
2018-08-31T09:47:34.727Z,25.60
2018-08-31T09:50:03.188Z,25.50
2018-08-31T09:52:31.535Z,25.60
2018-08-31T09:55:00.007Z,25.80
2018-08-31T09:57:28.549Z,25.80
2018-08-31T09:59:56.921Z,25.80
2018-08-31T10:02:30.783Z,25.70
2018-08-31T10:04:59.170Z,25.80
2018-08-31T10:07:27.484Z,25.90
2018-08-31T10:09:55.863Z,25.90
2018-08-31T10:12:24.385Z,26.10
2018-08-31T10:15:19.458Z,26.10
2018-08-31T10:17:47.832Z,26.10
2018-08-31T10:20:16.178Z,26.20
2018-08-31T10:22:44.574Z,26.20
2018-08-31T10:25:12.919Z,26.20
2018-08-31T10:27:41.308Z,26.20
2018-08-31T10:30:09.972Z,26.20
2018-08-31T10:32:38.667Z,26.10
2018-08-31T10:35:07.499Z,26.10
2018-08-31T10:37:35.912Z,26.00
2018-08-31T10:40:04.596Z,26.00
2018-08-31T10:42:32.948Z,26.00
2018-08-31T10:45:01.319Z,26.10
2018-08-31T10:47:29.823Z,26.30
2018-08-31T10:49:58.248Z,26.80
2018-08-31T10:52:26.657Z,27.20
2018-08-31T10:54:55.068Z,27.50
2018-08-31T10:57:23.696Z,28.40
2018-08-31T10:59:52.264Z,29.40
2018-08-31T11:02:20.673Z,29.80
2018-08-31T11:04:49.188Z,29.70
2018-08-31T11:07:17.688Z,29.60
2018-08-31T11:09:45.930Z,29.30
2018-08-31T11:12:14.324Z,28.90
2018-08-31T11:15:29.514Z,28.70
2018-08-31T11:17:57.831Z,28.60
2018-08-31T11:20:26.128Z,28.90
2018-08-31T11:22:54.568Z,29.70
2018-08-31T11:25:22.951Z,30.80
2018-08-31T11:27:51.479Z,31.80
2018-08-31T11:30:19.882Z,32.50
2018-08-31T11:32:48.313Z,32.50
2018-08-31T11:35:16.680Z,31.80
2018-08-31T11:37:45.083Z,31.30
2018-08-31T11:40:13.439Z,30.80
2018-08-31T11:42:41.863Z,30.30
2018-08-31T11:45:10.243Z,30.10
2018-08-31T11:47:38.543Z,29.80
2018-08-31T11:50:07.376Z,29.60
2018-08-31T11:52:35.822Z,29.40
2018-08-31T11:55:04.323Z,29.20
2018-08-31T11:57:32.724Z,29.00
2018-08-31T12:00:01.214Z,28.90
2018-08-31T12:02:29.675Z,28.70
2018-08-31T12:04:58.032Z,28.60
2018-08-31T12:07:26.423Z,28.40
2018-08-31T12:09:54.743Z,28.30
2018-08-31T12:12:23.134Z,28.30
2018-08-31T12:15:33.850Z,28.20
2018-08-31T12:18:02.595Z,28.10
2018-08-31T12:20:31.023Z,27.90
2018-08-31T12:22:59.660Z,27.80
2018-08-31T12:25:28.480Z,27.70
2018-08-31T12:27:56.922Z,27.60
2018-08-31T12:30:25.304Z,27.30
2018-08-31T12:32:54.249Z,26.70
2018-08-31T12:35:22.708Z,26.50
2018-08-31T12:37:51.212Z,26.20
2018-08-31T12:40:19.728Z,26.10
2018-08-31T12:42:48.215Z,26.00
2018-08-31T12:45:16.512Z,26.00
2018-08-31T12:47:45.483Z,26.00
2018-08-31T12:50:13.731Z,26.10
2018-08-31T12:52:42.087Z,26.10
2018-08-31T12:55:11.255Z,26.10
2018-08-31T12:57:39.699Z,26.20
2018-08-31T13:00:08.339Z,26.20
2018-08-31T13:02:37.210Z,26.10
2018-08-31T13:05:06.827Z,26.10
2018-08-31T13:07:35.171Z,26.10
2018-08-31T13:10:03.863Z,26.10
2018-08-31T13:12:32.303Z,26.10
2018-08-31T13:15:39.546Z,26.10
2018-08-31T13:18:08.139Z,26.10
2018-08-31T13:20:37.068Z,26.20
2018-08-31T13:23:06.215Z,26.10
2018-08-31T13:25:34.709Z,26.20
2018-08-31T13:28:03.168Z,26.20
2018-08-31T13:30:31.911Z,26.40
2018-08-31T13:33:00.579Z,26.30
2018-08-31T13:35:29.172Z,26.20
2018-08-31T13:37:57.639Z,26.20
2018-08-31T13:40:25.967Z,26.30
2018-08-31T13:42:54.390Z,26.30
2018-08-31T13:45:22.756Z,26.30
2018-08-31T13:47:51.091Z,26.30
2018-08-31T13:50:19.359Z,26.30
2018-08-31T13:52:47.766Z,26.30
2018-08-31T13:55:16.107Z,26.30
2018-08-31T13:57:44.595Z,26.70
2018-08-31T14:00:13.028Z,27.30
2018-08-31T14:02:41.397Z,27.30
2018-08-31T14:05:10.011Z,27.20
2018-08-31T14:07:38.403Z,27.20
2018-08-31T14:10:06.751Z,27.20
2018-08-31T14:12:35.141Z,27.30
2018-08-31T14:18:21.043Z,27.40
2018-08-31T14:20:49.638Z,27.50
2018-08-31T14:23:18.115Z,27.40
2018-08-31T14:25:46.959Z,27.30
2018-08-31T14:28:15.362Z,27.30
2018-08-31T14:30:43.783Z,27.20
2018-08-31T14:33:12.134Z,27.20
2018-08-31T14:35:40.923Z,26.90
2018-08-31T14:38:10.572Z,26.80
2018-08-31T14:40:39.140Z,26.80
2018-08-31T14:43:07.637Z,26.80
2018-08-31T14:45:35.946Z,26.90
2018-08-31T14:48:04.519Z,26.90
2018-08-31T14:50:32.947Z,26.90
2018-08-31T14:53:01.334Z,27.00
2018-08-31T14:55:30.206Z,27.00
2018-08-31T14:57:58.647Z,27.00
2018-08-31T15:00:27.073Z,26.90
2018-08-31T15:02:55.520Z,27.00
2018-08-31T15:05:23.975Z,27.00
2018-08-31T15:07:52.430Z,27.00
2018-08-31T15:10:20.886Z,27.10
2018-08-31T15:12:49.768Z,27.00
2018-08-31T15:18:38.596Z,26.90
2018-08-31T15:21:07.219Z,26.80
2018-08-31T15:23:35.780Z,26.80
2018-08-31T15:26:12.372Z,26.70
2018-08-31T15:28:40.746Z,26.60
2018-08-31T15:31:09.222Z,26.60
2018-08-31T15:33:43.232Z,26.60
2018-08-31T15:36:11.719Z,26.60
2018-08-31T15:38:40.044Z,26.60
2018-08-31T15:41:08.594Z,26.60
2018-08-31T15:43:36.987Z,26.50
2018-08-31T15:46:05.467Z,26.50
2018-08-31T15:48:33.887Z,26.60
2018-08-31T15:51:02.346Z,26.60
2018-08-31T15:53:30.971Z,26.60
2018-08-31T15:56:11.784Z,26.60
2018-08-31T15:58:45.304Z,26.70
2018-08-31T16:01:13.726Z,26.60
2018-08-31T16:03:42.159Z,26.60
2018-08-31T16:06:10.802Z,26.50
2018-08-31T16:08:39.391Z,26.50
2018-08-31T16:11:08.657Z,26.50
2018-08-31T16:13:37.260Z,26.40
2018-08-31T16:16:32.583Z,26.40
2018-08-31T16:19:01.115Z,26.50
2018-08-31T16:21:30.094Z,26.50
2018-08-31T16:23:58.418Z,26.50
2018-08-31T16:26:27.591Z,26.50
2018-08-31T16:28:56.030Z,26.50
2018-08-31T16:31:24.475Z,26.40
2018-08-31T16:33:53.208Z,26.30
2018-08-31T16:36:21.547Z,26.30
2018-08-31T16:38:50.026Z,26.20
2018-08-31T16:41:18.370Z,26.20
2018-08-31T16:43:46.827Z,26.20
2018-08-31T16:46:15.206Z,26.10
2018-08-31T16:48:43.463Z,26.00
2018-08-31T16:51:11.974Z,25.90
2018-08-31T16:53:40.366Z,25.90
2018-08-31T16:56:08.790Z,25.80
2018-08-31T16:58:37.249Z,25.80
2018-08-31T17:01:05.878Z,25.80
2018-08-31T17:03:34.294Z,25.70
2018-08-31T17:06:02.686Z,25.70
2018-08-31T17:08:31.306Z,25.70
2018-08-31T17:11:02.690Z,25.60
2018-08-31T17:13:31.272Z,25.60
2018-08-31T17:19:20.379Z,25.50
2018-08-31T17:21:49.178Z,25.40
2018-08-31T17:24:17.872Z,25.40
2018-08-31T17:26:51.838Z,25.40
2018-08-31T17:29:25.958Z,25.40
2018-08-31T17:31:59.956Z,25.40
2018-08-31T17:34:33.923Z,25.30
2018-08-31T17:37:07.962Z,25.30
2018-08-31T17:39:36.506Z,25.30
2018-08-31T17:42:05.183Z,25.30
2018-08-31T17:44:33.564Z,25.30
2018-08-31T17:47:02.064Z,25.20
2018-08-31T17:49:30.842Z,25.20
2018-08-31T17:51:59.423Z,25.20
2018-08-31T17:54:28.261Z,25.20
2018-08-31T17:56:57.094Z,25.10
2018-08-31T17:59:26.080Z,25.00
2018-08-31T18:01:55.234Z,25.00
2018-08-31T18:04:24.023Z,25.00
2018-08-31T18:06:53.148Z,24.90
2018-08-31T18:09:22.311Z,24.90
2018-08-31T18:11:51.379Z,24.80
2018-08-31T18:14:45.977Z,24.80
2018-08-31T18:17:15.555Z,24.80
2018-08-31T18:19:45.105Z,24.80
2018-08-31T18:22:14.179Z,24.70
2018-08-31T18:24:43.206Z,24.70
2018-08-31T18:27:12.402Z,24.70
2018-08-31T18:29:41.602Z,24.60
2018-08-31T18:32:10.820Z,24.50
2018-08-31T18:34:39.925Z,24.50
2018-08-31T18:37:09.371Z,24.50
2018-08-31T18:39:38.703Z,24.50
2018-08-31T18:42:07.844Z,24.40
2018-08-31T18:44:37.235Z,24.40
2018-08-31T18:47:06.583Z,24.40
2018-08-31T18:49:36.780Z,24.30
2018-08-31T18:52:07.663Z,24.30
2018-08-31T18:54:36.804Z,24.30
2018-08-31T18:57:06.955Z,24.20
2018-08-31T18:59:36.215Z,24.20
2018-08-31T19:02:05.459Z,24.20
2018-08-31T19:04:34.711Z,24.10
2018-08-31T19:07:04.006Z,24.20
2018-08-31T19:09:33.305Z,24.10
2018-08-31T19:12:02.543Z,24.10
2018-08-31T19:17:52.791Z,24.00
2018-08-31T19:20:22.331Z,24.00
2018-08-31T19:22:51.488Z,24.00
2018-08-31T19:25:21.928Z,23.90
2018-08-31T19:27:51.448Z,23.90
2018-08-31T19:30:22.267Z,23.80
2018-08-31T19:32:51.480Z,23.80
2018-08-31T19:35:21.011Z,23.80
2018-08-31T19:37:50.292Z,23.70
2018-08-31T19:40:19.423Z,23.70
2018-08-31T19:42:48.791Z,23.70
2018-08-31T19:45:18.260Z,23.70
2018-08-31T19:47:47.511Z,23.70
2018-08-31T19:50:16.831Z,23.70
2018-08-31T19:52:46.119Z,23.70
2018-08-31T19:55:23.411Z,23.70
2018-08-31T19:58:06.339Z,23.70
2018-08-31T20:00:35.760Z,23.70
2018-08-31T20:03:04.936Z,23.70
2018-08-31T20:05:34.748Z,23.70
2018-08-31T20:08:04.736Z,23.70
2018-08-31T20:10:34.010Z,23.60
2018-08-31T20:13:03.217Z,23.50
2018-08-31T20:18:55.607Z,23.50
2018-08-31T20:21:24.971Z,23.50
2018-08-31T20:23:54.186Z,23.40
2018-08-31T20:29:51.265Z,23.40
2018-08-31T20:32:20.512Z,23.40
2018-08-31T20:34:49.692Z,23.40
2018-08-31T20:37:18.915Z,23.40
2018-08-31T20:39:48.212Z,23.50
2018-08-31T20:42:17.299Z,23.40
2018-08-31T20:44:46.580Z,23.40
2018-08-31T20:47:15.908Z,23.30
2018-08-31T20:49:44.967Z,23.30
2018-08-31T20:52:15.148Z,23.30
2018-08-31T20:54:44.279Z,23.20
2018-08-31T20:57:13.585Z,23.20
2018-08-31T20:59:43.504Z,23.20
2018-08-31T21:02:12.787Z,23.20
2018-08-31T21:04:41.928Z,23.20
2018-08-31T21:07:11.122Z,23.20
2018-08-31T21:09:40.288Z,23.10
2018-08-31T21:12:09.491Z,23.20
2018-08-31T21:15:19.344Z,23.10
2018-08-31T21:17:48.413Z,23.10
2018-08-31T21:20:17.492Z,23.10
2018-08-31T21:22:46.496Z,23.10
2018-08-31T21:25:16.131Z,23.10
2018-08-31T21:27:45.145Z,23.10
2018-08-31T21:30:14.218Z,23.20
2018-08-31T21:32:43.427Z,23.20
2018-08-31T21:35:12.640Z,23.20
2018-08-31T21:37:41.239Z,23.30
2018-08-31T21:40:09.756Z,23.20
2018-08-31T21:42:38.660Z,23.20
2018-08-31T21:45:07.535Z,23.20
2018-08-31T21:47:36.408Z,23.20
2018-08-31T21:50:05.199Z,23.10
2018-08-31T21:52:34.082Z,23.10
2018-08-31T21:55:02.720Z,23.00
2018-08-31T21:57:31.219Z,23.00
2018-08-31T21:59:59.944Z,23.00
2018-08-31T22:02:28.570Z,23.00
2018-08-31T22:04:56.878Z,23.10
2018-08-31T22:07:25.360Z,23.10
2018-08-31T22:09:53.812Z,23.10
2018-08-31T22:12:22.479Z,23.10
2018-08-31T22:14:50.878Z,23.10
2018-08-31T22:17:19.591Z,23.10
2018-08-31T22:19:48.326Z,23.10
2018-08-31T22:22:16.716Z,23.20
2018-08-31T22:24:45.180Z,23.20
2018-08-31T22:27:13.986Z,23.20
2018-08-31T22:29:42.470Z,23.20
2018-08-31T22:32:11.213Z,23.20
2018-08-31T22:34:39.839Z,23.30
2018-08-31T22:37:08.455Z,23.20
2018-08-31T22:39:37.124Z,23.20
2018-08-31T22:42:05.760Z,23.20
2018-08-31T22:44:35.763Z,23.20
2018-08-31T22:47:05.036Z,23.20
2018-08-31T22:49:33.723Z,23.20
2018-08-31T22:52:02.212Z,23.20
2018-08-31T22:54:30.507Z,23.20
2018-08-31T22:56:59.110Z,23.20
2018-08-31T22:59:27.649Z,23.10
2018-08-31T23:01:56.082Z,23.00
2018-08-31T23:04:24.723Z,23.00
2018-08-31T23:06:53.516Z,23.00
2018-08-31T23:09:21.983Z,22.90
2018-08-31T23:11:50.592Z,22.90
2018-08-31T23:14:18.955Z,22.90
2018-08-31T23:16:47.572Z,22.90
2018-08-31T23:19:16.323Z,22.80
2018-08-31T23:21:44.563Z,22.80
2018-08-31T23:24:12.920Z,22.70
2018-08-31T23:26:41.369Z,22.70
2018-08-31T23:29:10.119Z,22.80
2018-08-31T23:31:38.750Z,22.70
2018-08-31T23:34:07.576Z,22.70
2018-08-31T23:36:36.351Z,22.70
2018-08-31T23:39:06.723Z,22.70
2018-08-31T23:41:35.618Z,22.70
2018-08-31T23:44:04.241Z,22.70
2018-08-31T23:46:32.462Z,22.70
2018-08-31T23:49:01.205Z,22.70
2018-08-31T23:51:30.630Z,22.60
2018-08-31T23:53:59.412Z,22.60
2018-08-31T23:56:29.114Z,22.60
2018-08-31T23:58:57.584Z,22.60
